createdAt,value
2018-02-25T00:00:47.938Z,101520.76
2018-02-25T00:03:16.360Z,101516.94
2018-02-25T00:05:44.976Z,101511.34
2018-02-25T00:08:13.389Z,101512.20
2018-02-25T00:10:41.805Z,101517.09
2018-02-25T00:13:10.269Z,101522.41
2018-02-25T00:15:38.691Z,101526.30
2018-02-25T00:18:07.123Z,101517.58
2018-02-25T00:20:35.604Z,101525.02
2018-02-25T00:23:04.038Z,101516.75
2018-02-25T00:25:32.468Z,101522.44
2018-02-25T00:28:00.956Z,101519.03
2018-02-25T00:30:29.370Z,101517.30
2018-02-25T00:32:57.796Z,101524.38
2018-02-25T00:35:26.255Z,101523.58
2018-02-25T00:37:54.673Z,101526.67
2018-02-25T00:40:23.088Z,101528.41
2018-02-25T00:42:51.533Z,101529.20
2018-02-25T00:45:19.976Z,101530.98
2018-02-25T00:47:48.390Z,101526.73
2018-02-25T00:50:16.852Z,101530.64
2018-02-25T00:52:45.271Z,101533.23
2018-02-25T00:55:13.690Z,101532.86
2018-02-25T00:57:42.151Z,101529.39
2018-02-25T01:00:10.582Z,101532.88
2018-02-25T01:02:39.008Z,101532.91
2018-02-25T01:05:07.491Z,101535.13
2018-02-25T01:07:35.911Z,101530.72
2018-02-25T01:10:04.346Z,101527.32
2018-02-25T01:12:32.816Z,101528.14
2018-02-25T01:15:01.270Z,101526.44
2018-02-25T01:17:29.680Z,101517.78
2018-02-25T01:19:58.146Z,101510.41
2018-02-25T01:22:26.577Z,101516.61
2018-02-25T01:24:54.982Z,101520.95
2018-02-25T01:27:23.443Z,101511.02
2018-02-25T01:29:51.858Z,101512.78
2018-02-25T01:32:20.280Z,101507.16
2018-02-25T01:34:48.742Z,101509.42
2018-02-25T01:37:17.168Z,101503.80
2018-02-25T01:39:45.598Z,101505.13
2018-02-25T01:42:14.075Z,101509.07
2018-02-25T01:44:42.491Z,101511.70
2018-02-25T01:47:10.906Z,101504.38
2018-02-25T01:49:39.384Z,101506.13
2018-02-25T01:52:07.816Z,101500.52
2018-02-25T01:54:36.233Z,101510.08
2018-02-25T01:57:04.688Z,101509.22
2018-02-25T01:59:33.116Z,101502.68
2018-02-25T02:02:01.548Z,101501.40
2018-02-25T02:04:30.047Z,101503.09
2018-02-25T02:06:58.498Z,101500.17
2018-02-25T02:09:26.923Z,101500.56
2018-02-25T02:11:55.378Z,101499.23
2018-02-25T02:14:23.809Z,101511.45
2018-02-25T02:16:52.239Z,101513.14
2018-02-25T02:19:20.721Z,101521.38
2018-02-25T02:21:49.164Z,101517.50
2018-02-25T02:24:17.586Z,101519.70
2018-02-25T02:26:46.081Z,101522.77
2018-02-25T02:29:14.497Z,101526.22
2018-02-25T02:31:42.976Z,101523.20
2018-02-25T02:34:11.464Z,101518.89
2018-02-25T02:36:39.894Z,101521.91
2018-02-25T02:39:08.325Z,101523.63
2018-02-25T02:41:36.795Z,101519.75
2018-02-25T02:44:05.253Z,101523.30
2018-02-25T02:46:33.675Z,101518.52
2018-02-25T02:49:02.135Z,101522.05
2018-02-25T02:51:30.573Z,101522.47
2018-02-25T02:53:59.012Z,101519.41
2018-02-25T02:56:27.485Z,101523.75
2018-02-25T02:58:55.910Z,101525.98
2018-02-25T03:01:24.334Z,101529.52
2018-02-25T03:03:52.824Z,101533.91
2018-02-25T03:06:21.251Z,101533.95
2018-02-25T03:08:49.667Z,101533.06
2018-02-25T03:11:18.140Z,101536.95
2018-02-25T03:13:46.578Z,101537.87
2018-02-25T03:16:14.995Z,101529.64
2018-02-25T03:18:43.459Z,101530.47
2018-02-25T03:21:11.884Z,101536.11
2018-02-25T03:23:40.320Z,101533.95
2018-02-25T03:26:08.773Z,101535.72
2018-02-25T03:28:37.204Z,101535.75
2018-02-25T03:31:05.623Z,101524.90
2018-02-25T03:33:34.114Z,101537.06
2018-02-25T03:36:02.535Z,101541.02
2018-02-25T03:38:30.954Z,101540.66
2018-02-25T03:40:59.406Z,101541.94
2018-02-25T03:43:27.837Z,101543.23
2018-02-25T03:45:56.253Z,101541.45
2018-02-25T03:48:24.701Z,101534.12
2018-02-25T03:50:53.119Z,101534.16
2018-02-25T03:53:21.558Z,101535.03
2018-02-25T03:55:50.394Z,101541.14
2018-02-25T03:58:18.818Z,101538.63
2018-02-25T04:00:47.231Z,101547.73
2018-02-25T04:03:15.964Z,101549.93
2018-02-25T04:05:44.398Z,101550.31
2018-02-25T04:08:12.834Z,101555.09
2018-02-25T04:10:41.287Z,101551.15
2018-02-25T04:13:09.710Z,101552.96
2018-02-25T04:15:38.140Z,101550.81
2018-02-25T04:18:06.617Z,101552.57
2018-02-25T04:20:35.049Z,101550.45
2018-02-25T04:23:03.483Z,101553.91
2018-02-25T04:25:31.954Z,101555.17
2018-02-25T04:28:00.395Z,101558.15
2018-02-25T04:30:28.856Z,101553.84
2018-02-25T04:32:57.318Z,101549.52
2018-02-25T04:35:25.749Z,101554.28
2018-02-25T04:37:54.180Z,101547.80
2018-02-25T04:40:22.654Z,101539.96
2018-02-25T04:42:51.071Z,101549.59
2018-02-25T04:45:19.511Z,101545.20
2018-02-25T04:47:47.961Z,101544.75
2018-02-25T04:50:16.393Z,101546.08
2018-02-25T04:52:44.811Z,101543.47
2018-02-25T04:55:13.276Z,101542.98
2018-02-25T04:57:41.715Z,101542.98
2018-02-25T05:00:10.152Z,101548.66
2018-02-25T05:02:38.625Z,101550.88
2018-02-25T05:05:07.064Z,101546.20
2018-02-25T05:07:35.498Z,101550.51
2018-02-25T05:10:04.005Z,101550.07
2018-02-25T05:12:32.441Z,101552.33
2018-02-25T05:15:00.878Z,101552.35
2018-02-25T05:17:29.695Z,101553.19
2018-02-25T05:19:58.126Z,101551.91
2018-02-25T05:22:26.550Z,101556.27
2018-02-25T05:24:55.042Z,101560.22
2018-02-25T05:27:23.455Z,101563.69
2018-02-25T05:29:51.882Z,101561.52
2018-02-25T05:32:20.371Z,101568.44
2018-02-25T05:34:48.801Z,101571.45
2018-02-25T05:37:17.236Z,101564.51
2018-02-25T05:39:45.717Z,101564.08
2018-02-25T05:42:14.134Z,101559.68
2018-02-25T05:44:42.565Z,101558.83
2018-02-25T05:47:11.021Z,101553.19
2018-02-25T05:49:39.438Z,101561.89
2018-02-25T05:52:07.862Z,101557.98
2018-02-25T05:54:36.319Z,101567.59
2018-02-25T05:57:04.748Z,101573.19
2018-02-25T05:59:33.166Z,101572.32
2018-02-25T06:02:01.636Z,101571.06
2018-02-25T06:04:30.081Z,101575.42
2018-02-25T06:06:58.521Z,101575.84
2018-02-25T06:09:27.022Z,101589.83
2018-02-25T06:11:55.452Z,101589.34
2018-02-25T06:14:23.870Z,101589.81
2018-02-25T06:16:52.319Z,101599.36
2018-02-25T06:19:20.745Z,101600.74
2018-02-25T06:21:49.157Z,101605.07
2018-02-25T06:24:17.657Z,101604.19
2018-02-25T06:26:46.113Z,101605.96
2018-02-25T06:29:14.591Z,101602.42
2018-02-25T06:31:43.092Z,101597.23
2018-02-25T06:34:11.523Z,101594.59
2018-02-25T06:36:39.934Z,101594.94
2018-02-25T06:39:08.400Z,101593.28
2018-02-25T06:41:36.821Z,101592.41
2018-02-25T06:44:05.250Z,101585.80
2018-02-25T06:46:33.754Z,101588.83
2018-02-25T06:49:02.184Z,101588.81
2018-02-25T06:51:30.602Z,101589.23
2018-02-25T06:53:59.092Z,101587.55
2018-02-25T06:56:27.528Z,101589.67
2018-02-25T06:58:55.968Z,101589.67
2018-02-25T07:01:24.430Z,101589.70
2018-02-25T07:03:52.906Z,101593.19
2018-02-25T07:06:21.330Z,101593.71
2018-02-25T07:08:49.801Z,101593.66
2018-02-25T07:11:18.250Z,101597.12
2018-02-25T07:13:46.669Z,101597.54
2018-02-25T07:16:15.132Z,101600.14
2018-02-25T07:18:43.574Z,101598.81
2018-02-25T07:21:11.998Z,101599.66
2018-02-25T07:23:40.485Z,101601.42
2018-02-25T07:26:08.919Z,101599.66
2018-02-25T07:28:37.388Z,101594.03
2018-02-25T07:31:05.862Z,101602.64
2018-02-25T07:33:34.297Z,101600.01
2018-02-25T07:36:02.743Z,101601.23
2018-02-25T07:38:31.222Z,101601.63
2018-02-25T07:40:59.656Z,101601.67
2018-02-25T07:43:28.105Z,101601.52
2018-02-25T07:45:56.602Z,101605.83
2018-02-25T07:48:25.033Z,101599.27
2018-02-25T07:50:53.458Z,101603.97
2018-02-25T07:53:21.935Z,101601.79
2018-02-25T07:55:50.364Z,101607.02
2018-02-25T07:58:18.800Z,101605.14
2018-02-25T08:00:47.279Z,101597.70
2018-02-25T08:03:15.695Z,101606.73
2018-02-25T08:05:44.110Z,101612.31
2018-02-25T08:08:12.581Z,101611.86
2018-02-25T08:10:41.007Z,101617.41
2018-02-25T08:13:09.441Z,101603.81
2018-02-25T08:15:37.899Z,101600.66
2018-02-25T08:18:06.341Z,101612.77
2018-02-25T08:20:34.780Z,101604.94
2018-02-25T08:23:03.249Z,101607.04
2018-02-25T08:25:31.680Z,101605.23
2018-02-25T08:28:00.096Z,101616.46
2018-02-25T08:30:28.577Z,101619.85
2018-02-25T08:32:57.003Z,101613.20
2018-02-25T08:35:25.482Z,101615.00
2018-02-25T08:37:53.964Z,101611.02
2018-02-25T08:40:22.401Z,101619.22
2018-02-25T08:42:50.814Z,101618.04
2018-02-25T08:45:19.275Z,101617.09
2018-02-25T08:47:47.704Z,101625.42
2018-02-25T08:50:16.141Z,101613.86
2018-02-25T08:52:44.617Z,101622.58
2018-02-25T08:55:13.030Z,101619.48
2018-02-25T08:57:41.466Z,101605.78
2018-02-25T09:00:09.952Z,101610.31
2018-02-25T09:02:38.358Z,101609.49
2018-02-25T09:05:06.765Z,101605.84
2018-02-25T09:07:35.235Z,101609.33
2018-02-25T09:10:03.693Z,101611.69
2018-02-25T09:12:32.120Z,101607.11
2018-02-25T09:15:00.581Z,101601.91
2018-02-25T09:17:28.994Z,101599.39
2018-02-25T09:19:57.424Z,101602.69
2018-02-25T09:22:25.888Z,101612.02
2018-02-25T09:24:54.302Z,101605.20
2018-02-25T09:27:22.726Z,101605.97
2018-02-25T09:29:51.175Z,101601.24
2018-02-25T09:32:19.590Z,101609.27
2018-02-25T09:34:48.013Z,101598.00
2018-02-25T09:37:16.481Z,101602.36
2018-02-25T09:39:44.905Z,101608.74
2018-02-25T09:42:13.340Z,101603.86
2018-02-25T09:44:41.804Z,101604.25
2018-02-25T09:47:10.228Z,101602.52
2018-02-25T09:49:38.637Z,101599.19
2018-02-25T09:52:07.113Z,101598.30
2018-02-25T09:54:35.541Z,101595.04
2018-02-25T09:57:03.951Z,101602.52
2018-02-25T09:59:32.403Z,101598.63
2018-02-25T10:02:00.815Z,101602.39
2018-02-25T10:04:29.229Z,101604.43
2018-02-25T10:06:57.686Z,101601.24
2018-02-25T10:09:26.120Z,101592.10
2018-02-25T10:11:54.527Z,101603.61
2018-02-25T10:14:23.004Z,101604.33
2018-02-25T10:16:51.444Z,101594.77
2018-02-25T10:19:19.854Z,101595.19
2018-02-25T10:21:48.310Z,101597.45
2018-02-25T10:24:16.728Z,101601.20
2018-02-25T10:26:45.161Z,101600.82
2018-02-25T10:29:13.631Z,101590.33
2018-02-25T10:31:42.070Z,101603.30
2018-02-25T10:34:10.490Z,101600.26
2018-02-25T10:36:38.972Z,101596.14
2018-02-25T10:39:07.385Z,101595.53
2018-02-25T10:41:35.874Z,101601.38
2018-02-25T10:44:04.353Z,101593.83
2018-02-25T10:46:32.793Z,101594.80
2018-02-25T10:49:01.234Z,101586.94
2018-02-25T10:51:29.702Z,101575.66
2018-02-25T10:53:58.111Z,101572.16
2018-02-25T10:56:26.540Z,101574.36
2018-02-25T10:58:55.006Z,101573.34
2018-02-25T11:01:30.285Z,101568.20
2018-02-25T11:03:58.754Z,101561.39
2018-02-25T11:06:27.185Z,101562.63
2018-02-25T11:08:55.618Z,101560.89
2018-02-25T11:11:24.104Z,101556.13
2018-02-25T11:13:52.547Z,101544.70
2018-02-25T11:16:22.651Z,101543.36
2018-02-25T11:18:51.134Z,101529.45
2018-02-25T11:21:19.568Z,101526.37
2018-02-25T11:23:47.993Z,101529.83
2018-02-25T11:26:16.450Z,101518.34
2018-02-25T11:28:44.872Z,101526.43
2018-02-25T11:31:13.295Z,101521.20
2018-02-25T11:33:41.754Z,101518.13
2018-02-25T11:36:10.292Z,101513.77
2018-02-25T11:38:38.729Z,101511.42
2018-02-25T11:41:07.212Z,101502.34
2018-02-25T11:43:35.649Z,101505.20
2018-02-25T11:46:04.097Z,101503.56
2018-02-25T11:48:32.598Z,101501.41
2018-02-25T11:51:01.043Z,101496.98
2018-02-25T11:53:29.484Z,101499.71
2018-02-25T11:55:57.965Z,101495.42
2018-02-25T11:58:26.383Z,101503.59
2018-02-25T12:00:54.806Z,101501.09
2018-02-25T12:03:23.275Z,101497.19
2018-02-25T12:05:51.697Z,101495.36
2018-02-25T12:08:20.135Z,101493.99
2018-02-25T12:10:48.633Z,101489.33
2018-02-25T12:13:17.065Z,101487.26
2018-02-25T12:15:45.512Z,101488.47
2018-02-25T12:18:13.982Z,101494.45
2018-02-25T12:20:42.421Z,101490.55
2018-02-25T12:23:10.866Z,101488.75
2018-02-25T12:25:39.357Z,101482.81
2018-02-25T12:28:07.779Z,101478.16
2018-02-25T12:30:36.199Z,101474.16
2018-02-25T12:33:04.681Z,101475.06
2018-02-25T12:35:33.117Z,101466.23
2018-02-25T12:38:01.526Z,101467.84
2018-02-25T12:40:30.018Z,101464.45
2018-02-25T12:42:58.433Z,101464.87
2018-02-25T12:45:26.873Z,101460.86
2018-02-25T12:47:55.333Z,101453.87
2018-02-25T12:50:23.755Z,101451.31
2018-02-25T12:52:52.195Z,101445.12
2018-02-25T12:55:20.656Z,101454.91
2018-02-25T12:57:49.105Z,101442.23
2018-02-25T13:00:17.516Z,101442.94
2018-02-25T13:02:45.965Z,101435.40
2018-02-25T13:05:14.390Z,101436.11
2018-02-25T13:07:42.821Z,101436.73
2018-02-25T13:10:11.282Z,101440.11
2018-02-25T13:12:39.729Z,101432.61
2018-02-25T13:15:09.037Z,101431.05
2018-02-25T13:17:37.506Z,101429.33
2018-02-25T13:20:05.927Z,101423.36
2018-02-25T13:22:34.352Z,101425.34
2018-02-25T13:25:02.824Z,101422.72
2018-02-25T13:27:31.259Z,101418.83
2018-02-25T13:29:59.677Z,101423.44
2018-02-25T13:32:28.142Z,101424.56
2018-02-25T13:34:56.564Z,101412.86
2018-02-25T13:37:24.992Z,101418.38
2018-02-25T13:39:53.469Z,101415.09
2018-02-25T13:42:21.909Z,101410.77
2018-02-25T13:44:50.354Z,101411.62
2018-02-25T13:47:18.855Z,101414.31
2018-02-25T13:49:47.282Z,101409.95
2018-02-25T13:52:15.703Z,101405.18
2018-02-25T13:54:44.182Z,101410.13
2018-02-25T13:57:12.616Z,101413.05
2018-02-25T13:59:41.064Z,101410.75
2018-02-25T14:02:09.564Z,101407.19
2018-02-25T14:04:38.000Z,101406.83
2018-02-25T14:07:06.433Z,101404.09
2018-02-25T14:09:34.911Z,101407.73
2018-02-25T14:12:03.352Z,101408.45
2018-02-25T14:14:31.774Z,101406.05
2018-02-25T14:17:00.254Z,101404.44
2018-02-25T14:19:28.698Z,101408.99
2018-02-25T14:21:57.145Z,101401.30
2018-02-25T14:24:25.649Z,101409.39
2018-02-25T14:26:54.085Z,101406.45
2018-02-25T14:29:22.508Z,101413.16
2018-02-25T14:31:50.982Z,101402.83
2018-02-25T14:34:19.421Z,101402.55
2018-02-25T14:36:47.839Z,101412.59
2018-02-25T14:39:16.316Z,101402.16
2018-02-25T14:41:44.756Z,101410.34
2018-02-25T14:44:13.202Z,101403.91
2018-02-25T14:46:41.674Z,101408.42
2018-02-25T14:49:10.140Z,101403.59
2018-02-25T14:51:38.544Z,101397.70
2018-02-25T14:54:07.022Z,101396.77
2018-02-25T14:56:35.434Z,101397.88
2018-02-25T14:59:03.890Z,101401.34
2018-02-25T15:01:32.366Z,101395.63
2018-02-25T15:04:00.809Z,101398.09
2018-02-25T15:06:29.245Z,101393.20
2018-02-25T15:08:57.734Z,101398.71
2018-02-25T15:11:26.146Z,101393.72
2018-02-25T15:13:54.589Z,101397.70
2018-02-25T15:16:23.064Z,101399.13
2018-02-25T15:18:51.522Z,101392.14
2018-02-25T15:21:19.962Z,101390.95
2018-02-25T15:23:48.437Z,101388.85
2018-02-25T15:26:16.872Z,101391.48
2018-02-25T15:28:45.305Z,101391.69
2018-02-25T15:31:13.782Z,101395.66
2018-02-25T15:33:42.198Z,101384.02
2018-02-25T15:36:10.623Z,101379.30
2018-02-25T15:38:39.074Z,101382.66
2018-02-25T15:41:07.495Z,101387.77
2018-02-25T15:43:35.925Z,101382.67
2018-02-25T15:46:04.452Z,101380.54
2018-02-25T15:48:32.864Z,101384.04
2018-02-25T15:51:01.329Z,101390.13
2018-02-25T15:53:29.835Z,101388.45
2018-02-25T15:55:58.248Z,101388.77
2018-02-25T15:58:26.654Z,101388.93
2018-02-25T16:00:55.098Z,101389.08
2018-02-25T16:03:23.514Z,101389.45
2018-02-25T16:05:51.929Z,101393.97
2018-02-25T16:08:20.392Z,101385.73
2018-02-25T16:10:48.821Z,101394.48
2018-02-25T16:13:17.257Z,101395.33
2018-02-25T16:15:45.727Z,101393.92
2018-02-25T16:18:14.154Z,101393.59
2018-02-25T16:20:42.586Z,101396.44
2018-02-25T16:23:11.040Z,101392.33
2018-02-25T16:25:39.470Z,101392.44
2018-02-25T16:28:07.901Z,101394.46
2018-02-25T16:30:36.574Z,101390.54
2018-02-25T16:33:05.018Z,101396.71
2018-02-25T16:35:33.444Z,101389.70
2018-02-25T16:38:01.937Z,101390.95
2018-02-25T16:40:30.367Z,101394.52
2018-02-25T16:42:58.834Z,101394.05
2018-02-25T16:45:27.287Z,101390.48
2018-02-25T16:47:55.698Z,101388.39
2018-02-25T16:50:24.137Z,101385.86
2018-02-25T16:52:52.587Z,101396.20
2018-02-25T16:55:21.009Z,101397.13
2018-02-25T16:57:49.438Z,101396.55
2018-02-25T17:00:17.897Z,101403.61
2018-02-25T17:02:46.327Z,101400.16
2018-02-25T17:05:14.761Z,101404.70
2018-02-25T17:07:43.230Z,101403.34
2018-02-25T17:10:11.665Z,101410.82
2018-02-25T17:12:40.089Z,101413.58
2018-02-25T17:15:08.564Z,101409.55
2018-02-25T17:17:36.993Z,101412.17
2018-02-25T17:20:05.410Z,101414.09
2018-02-25T17:22:33.868Z,101421.48
2018-02-25T17:25:02.278Z,101418.12
2018-02-25T17:27:30.702Z,101417.88
2018-02-25T17:29:59.179Z,101421.68
2018-02-25T17:32:27.641Z,101416.20
2018-02-25T17:34:56.054Z,101419.23
2018-02-25T17:37:24.503Z,101414.80
2018-02-25T17:39:52.928Z,101413.11
2018-02-25T17:42:21.364Z,101408.72
2018-02-25T17:44:49.849Z,101417.13
2018-02-25T17:47:18.267Z,101413.16
2018-02-25T17:49:46.679Z,101410.16
2018-02-25T17:52:15.127Z,101411.80
2018-02-25T17:54:43.552Z,101414.47
2018-02-25T17:57:12.000Z,101413.63
2018-02-25T17:59:40.477Z,101411.19
2018-02-25T18:02:08.904Z,101411.75
2018-02-25T18:04:37.330Z,101412.54
2018-02-25T18:07:05.782Z,101421.10
2018-02-25T18:09:34.194Z,101409.08
2018-02-25T18:12:02.617Z,101414.61
2018-02-25T18:14:31.080Z,101416.05
2018-02-25T18:16:59.503Z,101410.77
2018-02-25T18:19:27.962Z,101417.22
2018-02-25T18:21:56.408Z,101414.05
2018-02-25T18:24:24.834Z,101419.47
2018-02-25T18:26:53.288Z,101414.97
2018-02-25T18:29:21.745Z,101414.69
2018-02-25T18:31:50.160Z,101414.14
2018-02-25T18:34:18.571Z,101415.95
2018-02-25T18:36:47.048Z,101413.39
2018-02-25T18:39:15.483Z,101415.72
2018-02-25T18:41:43.897Z,101416.98
2018-02-25T18:44:12.358Z,101415.75
2018-02-25T18:46:40.789Z,101424.17
2018-02-25T18:49:09.219Z,101425.43
2018-02-25T18:51:37.662Z,101417.49
2018-02-25T18:54:06.067Z,101418.42
2018-02-25T18:56:34.489Z,101423.70
2018-02-25T18:59:02.987Z,101423.24
2018-02-25T19:01:31.455Z,101428.09
2018-02-25T19:03:59.877Z,101421.55
2018-02-25T19:06:28.347Z,101422.48
2018-02-25T19:08:56.775Z,101415.30
2018-02-25T19:11:25.205Z,101421.51
2018-02-25T19:13:53.654Z,101417.28
2018-02-25T19:16:22.076Z,101421.13
2018-02-25T19:18:50.554Z,101408.88
2018-02-25T19:21:18.998Z,101410.56
2018-02-25T19:23:47.433Z,101409.46
2018-02-25T19:26:15.847Z,101410.02
2018-02-25T19:28:44.312Z,101411.83
2018-02-25T19:31:12.738Z,101412.63
2018-02-25T19:33:41.167Z,101410.81
2018-02-25T19:36:15.249Z,101415.63
2018-02-25T19:41:53.492Z,101409.39
2018-02-25T19:44:21.896Z,101409.78
2018-02-25T19:46:50.321Z,101408.45
2018-02-25T19:49:18.781Z,101414.55
2018-02-25T19:51:47.204Z,101411.00
2018-02-25T19:54:15.614Z,101405.89
2018-02-25T19:56:44.097Z,101411.08
2018-02-25T19:59:12.512Z,101413.74
2018-02-25T20:01:40.923Z,101417.80
2018-02-25T20:04:09.398Z,101410.75
2018-02-25T20:06:37.806Z,101407.62
2018-02-25T20:09:06.215Z,101408.97
2018-02-25T20:11:34.668Z,101408.98
2018-02-25T20:14:03.074Z,101402.01
2018-02-25T20:16:31.487Z,101403.23
2018-02-25T20:18:59.968Z,101401.03
2018-02-25T20:21:28.378Z,101399.12
2018-02-25T20:23:56.790Z,101397.39
2018-02-25T20:26:25.260Z,101388.79
2018-02-25T20:28:53.670Z,101387.89
2018-02-25T20:31:22.074Z,101388.19
2018-02-25T20:33:50.536Z,101385.09
2018-02-25T20:36:18.943Z,101385.66
2018-02-25T20:38:47.354Z,101393.46
2018-02-25T20:41:15.821Z,101381.68
2018-02-25T20:43:44.236Z,101381.12
2018-02-25T20:46:12.763Z,101386.50
2018-02-25T20:48:41.278Z,101381.12
2018-02-25T20:51:09.712Z,101382.10
2018-02-25T20:53:38.133Z,101385.33
2018-02-25T20:56:06.578Z,101385.20
2018-02-25T20:58:35.010Z,101377.34
2018-02-25T21:01:03.445Z,101385.98
2018-02-25T21:03:31.903Z,101388.79
2018-02-25T21:06:00.329Z,101386.50
2018-02-25T21:08:28.738Z,101394.41
2018-02-25T21:10:57.189Z,101391.83
2018-02-25T21:13:25.606Z,101399.34
2018-02-25T21:15:54.034Z,101393.03
2018-02-25T21:18:22.502Z,101399.87
2018-02-25T21:20:50.914Z,101395.06
2018-02-25T21:23:19.340Z,101391.84
2018-02-25T21:25:47.793Z,101392.36
2018-02-25T21:28:16.210Z,101392.02
2018-02-25T21:30:44.661Z,101392.73
2018-02-25T21:33:13.128Z,101393.75
2018-02-25T21:35:41.557Z,101395.86
2018-02-25T21:38:09.970Z,101398.17
2018-02-25T21:40:38.439Z,101403.03
2018-02-25T21:43:06.864Z,101400.46
2018-02-25T21:45:35.300Z,101403.50
2018-02-25T21:48:03.757Z,101397.71
2018-02-25T21:50:32.189Z,101398.23
2018-02-25T21:53:00.617Z,101397.84
2018-02-25T21:55:29.087Z,101397.72
2018-02-25T21:58:03.077Z,101393.37
2018-02-25T22:00:37.079Z,101396.70
2018-02-25T22:03:10.932Z,101390.29
2018-02-25T22:05:39.416Z,101396.41
2018-02-25T22:08:07.835Z,101393.70
2018-02-25T22:10:36.240Z,101396.88
2018-02-25T22:13:04.698Z,101399.19
2018-02-25T22:15:33.125Z,101381.30
2018-02-25T22:18:01.560Z,101381.11
2018-02-25T22:20:30.030Z,101378.08
2018-02-25T22:22:58.441Z,101371.66
2018-02-25T22:25:26.860Z,101378.77
2018-02-25T22:27:55.317Z,101383.39
2018-02-25T22:30:23.741Z,101372.59
2018-02-25T22:32:52.176Z,101376.14
2018-02-25T22:35:20.652Z,101376.78
2018-02-25T22:37:49.074Z,101379.39
2018-02-25T22:40:17.481Z,101381.22
2018-02-25T22:42:45.949Z,101379.32
2018-02-25T22:45:14.376Z,101376.36
2018-02-25T22:47:42.812Z,101379.53
2018-02-25T22:50:11.262Z,101374.62
2018-02-25T22:52:39.678Z,101384.98
2018-02-25T22:55:08.112Z,101375.47
2018-02-25T22:57:36.589Z,101383.97
2018-02-25T23:00:05.049Z,101383.08
2018-02-25T23:02:33.462Z,101384.34
2018-02-25T23:05:02.026Z,101385.23
2018-02-25T23:07:30.437Z,101390.54
2018-02-25T23:09:58.874Z,101391.39
2018-02-25T23:12:27.341Z,101391.47
2018-02-25T23:14:55.768Z,101402.48
2018-02-25T23:17:24.200Z,101395.48
2018-02-25T23:19:52.694Z,101392.61
2018-02-25T23:22:21.110Z,101399.11
2018-02-25T23:24:49.537Z,101394.80
2018-02-25T23:27:18.014Z,101393.54
2018-02-25T23:29:46.422Z,101399.95
2018-02-25T23:32:14.845Z,101396.03
2018-02-25T23:34:43.313Z,101393.33
2018-02-25T23:37:11.740Z,101390.41
2018-02-25T23:39:40.178Z,101393.41
2018-02-25T23:42:08.630Z,101389.86
2018-02-25T23:44:37.039Z,101385.94
2018-02-25T23:47:05.459Z,101381.22
2018-02-25T23:49:33.929Z,101390.29
2018-02-25T23:52:02.364Z,101384.05
2018-02-25T23:54:30.779Z,101390.80
2018-02-25T23:56:59.265Z,101386.11
2018-02-25T23:59:27.705Z,101385.36
